sensor_id;sensor_type;location;lat;lon;timestamp;pressure;altitude;pressure_sealevel;temperature;humidity
43503;BME280;29098;48.184;16.298;2023-02-14T00:00:07;101350.56;;;3.69;86.88
43503;BME280;29098;48.184;16.298;2023-02-14T00:02:33;101344.75;;;3.80;86.50
43503;BME280;29098;48.184;16.298;2023-02-14T00:04:58;101343.06;;;3.79;86.83
43503;BME280;29098;48.184;16.298;2023-02-14T00:07:24;101344.03;;;3.93;86.60
43503;BME280;29098;48.184;16.298;2023-02-14T00:09:49;101342.41;;;4.06;86.15
43503;BME280;29098;48.184;16.298;2023-02-14T00:12:14;101349.00;;;3.97;86.31
43503;BME280;29098;48.184;16.298;2023-02-14T00:14:40;101349.25;;;3.93;87.08
43503;BME280;29098;48.184;16.298;2023-02-14T00:17:24;101344.50;;;4.00;87.35
43503;BME280;29098;48.184;16.298;2023-02-14T00:19:49;101340.88;;;4.02;87.85
43503;BME280;29098;48.184;16.298;2023-02-14T00:22:14;101343.88;;;4.10;87.88
43503;BME280;29098;48.184;16.298;2023-02-14T00:24:40;101335.13;;;4.11;88.25
43503;BME280;29098;48.184;16.298;2023-02-14T00:27:05;101337.72;;;4.11;87.91
43503;BME280;29098;48.184;16.298;2023-02-14T00:29:31;101346.16;;;4.17;87.93
43503;BME280;29098;48.184;16.298;2023-02-14T00:31:57;101345.75;;;4.08;88.21
43503;BME280;29098;48.184;16.298;2023-02-14T00:34:22;101345.88;;;4.21;87.73
43503;BME280;29098;48.184;16.298;2023-02-14T00:36:48;101347.25;;;3.98;88.51
43503;BME280;29098;48.184;16.298;2023-02-14T00:39:13;101349.47;;;4.04;88.54
43503;BME280;29098;48.184;16.298;2023-02-14T00:41:39;101344.66;;;4.13;88.64
43503;BME280;29098;48.184;16.298;2023-02-14T00:44:05;101348.38;;;4.08;88.93
43503;BME280;29098;48.184;16.298;2023-02-14T00:46:32;101344.16;;;4.06;89.16
43503;BME280;29098;48.184;16.298;2023-02-14T00:48:57;101347.28;;;4.13;88.69
43503;BME280;29098;48.184;16.298;2023-02-14T00:51:23;101344.09;;;4.07;89.07
43503;BME280;29098;48.184;16.298;2023-02-14T00:53:49;101348.84;;;4.15;88.85
43503;BME280;29098;48.184;16.298;2023-02-14T00:56:15;101350.34;;;4.19;88.68
43503;BME280;29098;48.184;16.298;2023-02-14T00:58:40;101345.88;;;4.21;88.81
43503;BME280;29098;48.184;16.298;2023-02-14T01:01:06;101337.25;;;4.05;89.47
43503;BME280;29098;48.184;16.298;2023-02-14T01:03:32;101341.47;;;4.07;89.82
43503;BME280;29098;48.184;16.298;2023-02-14T01:05:57;101343.41;;;4.04;90.42
43503;BME280;29098;48.184;16.298;2023-02-14T01:08:23;101338.94;;;4.06;89.84
43503;BME280;29098;48.184;16.298;2023-02-14T01:10:49;101334.00;;;4.01;90.42
43503;BME280;29098;48.184;16.298;2023-02-14T01:13:14;101337.25;;;4.05;90.39
43503;BME280;29098;48.184;16.298;2023-02-14T01:15:41;101343.16;;;4.08;90.31
43503;BME280;29098;48.184;16.298;2023-02-14T01:18:07;101339.78;;;4.06;90.89
43503;BME280;29098;48.184;16.298;2023-02-14T01:20:32;101341.63;;;4.04;90.74
43503;BME280;29098;48.184;16.298;2023-02-14T01:22:57;101342.78;;;4.15;90.71
43503;BME280;29098;48.184;16.298;2023-02-14T01:25:23;101335.13;;;4.11;90.90
43503;BME280;29098;48.184;16.298;2023-02-14T01:27:48;101337.94;;;4.08;91.01
43503;BME280;29098;48.184;16.298;2023-02-14T01:30:14;101335.31;;;4.08;91.03
43503;BME280;29098;48.184;16.298;2023-02-14T01:32:39;101325.63;;;4.10;90.99
43503;BME280;29098;48.184;16.298;2023-02-14T01:35:06;101329.44;;;4.05;91.23
43503;BME280;29098;48.184;16.298;2023-02-14T01:37:32;101333.63;;;4.07;91.30
43503;BME280;29098;48.184;16.298;2023-02-14T01:39:57;101323.94;;;4.09;91.11
43503;BME280;29098;48.184;16.298;2023-02-14T01:42:23;101319.75;;;4.07;91.57
43503;BME280;29098;48.184;16.298;2023-02-14T01:47:14;101321.72;;;4.18;90.77
43503;BME280;29098;48.184;16.298;2023-02-14T01:49:42;101316.69;;;4.15;90.84
43503;BME280;29098;48.184;16.298;2023-02-14T01:52:14;101314.91;;;4.15;91.04
43503;BME280;29098;48.184;16.298;2023-02-14T01:54:43;101312.06;;;4.20;90.63
43503;BME280;29098;48.184;16.298;2023-02-14T01:57:11;101298.41;;;4.15;90.86
43503;BME280;29098;48.184;16.298;2023-02-14T01:59:39;101308.69;;;4.32;90.01
43503;BME280;29098;48.184;16.298;2023-02-14T02:02:06;101300.94;;;4.16;90.72
43503;BME280;29098;48.184;16.298;2023-02-14T02:04:33;101301.41;;;4.23;90.46
43503;BME280;29098;48.184;16.298;2023-02-14T02:07:03;101295.88;;;4.13;91.08
43503;BME280;29098;48.184;16.298;2023-02-14T02:09:31;101292.03;;;4.04;91.41
43503;BME280;29098;48.184;16.298;2023-02-14T02:11:57;101296.16;;;4.08;91.36
43503;BME280;29098;48.184;16.298;2023-02-14T02:14:23;101295.63;;;4.18;91.07
43503;BME280;29098;48.184;16.298;2023-02-14T02:24:51;101283.69;;;4.14;91.17
43503;BME280;29098;48.184;16.298;2023-02-14T02:27:23;101282.75;;;4.15;91.02
43503;BME280;29098;48.184;16.298;2023-02-14T02:37:43;101271.75;;;4.09;91.16
43503;BME280;29098;48.184;16.298;2023-02-14T02:40:21;101274.84;;;4.16;90.92
43503;BME280;29098;48.184;16.298;2023-02-14T02:42:57;101265.50;;;4.12;91.09
43503;BME280;29098;48.184;16.298;2023-02-14T02:45:34;101274.94;;;4.15;91.05
43503;BME280;29098;48.184;16.298;2023-02-14T02:48:22;101272.31;;;4.15;91.06
43503;BME280;29098;48.184;16.298;2023-02-14T02:50:52;101274.34;;;4.09;91.38
43503;BME280;29098;48.184;16.298;2023-02-14T02:53:45;101269.50;;;4.18;90.84
43503;BME280;29098;48.184;16.298;2023-02-14T02:59:02;101268.69;;;4.17;90.82
43503;BME280;29098;48.184;16.298;2023-02-14T03:01:37;101271.38;;;4.16;90.97
43503;BME280;29098;48.184;16.298;2023-02-14T03:04:06;101267.56;;;4.21;90.63
43503;BME280;29098;48.184;16.298;2023-02-14T03:06:53;101273.34;;;4.12;91.02
43503;BME280;29098;48.184;16.298;2023-02-14T03:17:35;101257.00;;;4.08;91.30
43503;BME280;29098;48.184;16.298;2023-02-14T03:20:08;101258.69;;;4.09;91.14
43503;BME280;29098;48.184;16.298;2023-02-14T03:27:58;101260.38;;;4.10;90.92
43503;BME280;29098;48.184;16.298;2023-02-14T03:30:31;101249.75;;;3.99;91.73
43503;BME280;29098;48.184;16.298;2023-02-14T03:33:02;101260.09;;;4.01;91.42
43503;BME280;29098;48.184;16.298;2023-02-14T03:35:36;101257.84;;;3.94;91.71
43503;BME280;29098;48.184;16.298;2023-02-14T03:38:06;101251.41;;;3.86;92.42
43503;BME280;29098;48.184;16.298;2023-02-14T03:43:11;101249.81;;;3.83;92.29
43503;BME280;29098;48.184;16.298;2023-02-14T03:45:43;101256.53;;;3.87;92.67
43503;BME280;29098;48.184;16.298;2023-02-14T03:48:11;101247.19;;;3.83;92.96
43503;BME280;29098;48.184;16.298;2023-02-14T03:50:37;101252.59;;;3.80;92.93
43503;BME280;29098;48.184;16.298;2023-02-14T03:53:04;101248.31;;;3.79;92.70
43503;BME280;29098;48.184;16.298;2023-02-14T03:55:33;101247.47;;;3.78;92.99
43503;BME280;29098;48.184;16.298;2023-02-14T04:00:28;101258.63;;;3.66;93.86
43503;BME280;29098;48.184;16.298;2023-02-14T04:02:57;101252.56;;;3.65;93.79
43503;BME280;29098;48.184;16.298;2023-02-14T04:05:26;101245.00;;;3.61;94.02
43503;BME280;29098;48.184;16.298;2023-02-14T04:07:53;101248.75;;;3.71;93.52
43503;BME280;29098;48.184;16.298;2023-02-14T04:10:19;101245.00;;;3.61;94.04
43503;BME280;29098;48.184;16.298;2023-02-14T04:12:45;101247.28;;;3.67;93.92
43503;BME280;29098;48.184;16.298;2023-02-14T04:15:11;101243.16;;;3.63;94.25
43503;BME280;29098;48.184;16.298;2023-02-14T04:17:37;101236.91;;;3.65;94.09
43503;BME280;29098;48.184;16.298;2023-02-14T04:20:21;101240.25;;;3.67;94.65
43503;BME280;29098;48.184;16.298;2023-02-14T04:22:47;101242.13;;;3.65;94.50
43503;BME280;29098;48.184;16.298;2023-02-14T04:25:12;101250.88;;;3.64;94.58
43503;BME280;29098;48.184;16.298;2023-02-14T04:27:38;101244.16;;;3.60;94.97
43503;BME280;29098;48.184;16.298;2023-02-14T04:30:03;101231.34;;;3.72;94.53
43503;BME280;29098;48.184;16.298;2023-02-14T04:32:29;101232.16;;;3.72;94.30
43503;BME280;29098;48.184;16.298;2023-02-14T04:34:55;101227.50;;;3.63;94.81
43503;BME280;29098;48.184;16.298;2023-02-14T04:37:20;101217.44;;;3.71;94.34
43503;BME280;29098;48.184;16.298;2023-02-14T04:39:45;101229.84;;;3.67;95.01
43503;BME280;29098;48.184;16.298;2023-02-14T04:42:11;101215.16;;;3.81;93.93
43503;BME280;29098;48.184;16.298;2023-02-14T04:44:36;101218.97;;;3.90;93.40
43503;BME280;29098;48.184;16.298;2023-02-14T04:47:05;101212.22;;;3.71;94.46
43503;BME280;29098;48.184;16.298;2023-02-14T04:49:31;101219.69;;;3.77;94.37
43503;BME280;29098;48.184;16.298;2023-02-14T04:51:56;101215.59;;;3.73;94.65
43503;BME280;29098;48.184;16.298;2023-02-14T04:54:27;101213.47;;;3.80;93.94
43503;BME280;29098;48.184;16.298;2023-02-14T04:56:52;101222.22;;;3.79;94.16
43503;BME280;29098;48.184;16.298;2023-02-14T04:59:18;101212.88;;;3.75;94.59
43503;BME280;29098;48.184;16.298;2023-02-14T05:01:43;101224.72;;;3.80;93.99
43503;BME280;29098;48.184;16.298;2023-02-14T05:04:08;101230.31;;;3.89;93.91
43503;BME280;29098;48.184;16.298;2023-02-14T05:06:34;101232.47;;;3.82;93.99
43503;BME280;29098;48.184;16.298;2023-02-14T05:09:00;101229.94;;;3.80;94.44
43503;BME280;29098;48.184;16.298;2023-02-14T05:11:26;101231.91;;;3.91;93.76
43503;BME280;29098;48.184;16.298;2023-02-14T05:13:51;101227.28;;;3.96;93.17
43503;BME280;29098;48.184;16.298;2023-02-14T05:16:17;101227.00;;;4.01;93.05
43503;BME280;29098;48.184;16.298;2023-02-14T05:18:42;101230.63;;;4.13;92.04
43503;BME280;29098;48.184;16.298;2023-02-14T05:21:08;101226.81;;;4.04;92.47
43503;BME280;29098;48.184;16.298;2023-02-14T05:23:33;101229.63;;;4.16;92.14
43503;BME280;29098;48.184;16.298;2023-02-14T05:25:59;101235.75;;;4.00;92.26
43503;BME280;29098;48.184;16.298;2023-02-14T05:28:24;101236.41;;;4.04;91.98
43503;BME280;29098;48.184;16.298;2023-02-14T05:30:50;101231.84;;;4.07;91.78
43503;BME280;29098;48.184;16.298;2023-02-14T05:33:16;101234.63;;;4.04;91.72
43503;BME280;29098;48.184;16.298;2023-02-14T05:35:41;101223.00;;;4.10;91.50
43503;BME280;29098;48.184;16.298;2023-02-14T05:38:06;101220.09;;;4.15;90.97
43503;BME280;29098;48.184;16.298;2023-02-14T05:40:32;101224.75;;;4.09;91.20
43503;BME280;29098;48.184;16.298;2023-02-14T05:42:57;101226.63;;;4.07;91.21
43503;BME280;29098;48.184;16.298;2023-02-14T05:45:23;101228.09;;;4.11;91.22
43503;BME280;29098;48.184;16.298;2023-02-14T05:47:48;101227.00;;;4.01;91.65
43503;BME280;29098;48.184;16.298;2023-02-14T05:50:14;101213.28;;;3.97;91.80
43503;BME280;29098;48.184;16.298;2023-02-14T05:52:39;101220.28;;;3.97;91.94
43503;BME280;29098;48.184;16.298;2023-02-14T05:55:04;101221.03;;;3.99;91.94
43503;BME280;29098;48.184;16.298;2023-02-14T05:57:30;101214.88;;;4.00;91.97
43503;BME280;29098;48.184;16.298;2023-02-14T05:59:56;101220.19;;;3.98;92.02
43503;BME280;29098;48.184;16.298;2023-02-14T06:02:21;101228.94;;;3.97;91.91
43503;BME280;29098;48.184;16.298;2023-02-14T06:04:46;101225.50;;;3.97;92.01
43503;BME280;29098;48.184;16.298;2023-02-14T06:07:12;101235.19;;;3.95;92.16
43503;BME280;29098;48.184;16.298;2023-02-14T06:09:37;101236.78;;;3.97;92.06
43503;BME280;29098;48.184;16.298;2023-02-14T06:12:02;101243.31;;;4.05;91.75
43503;BME280;29098;48.184;16.298;2023-02-14T06:14:28;101237.66;;;4.13;91.10
43503;BME280;29098;48.184;16.298;2023-02-14T06:16:53;101242.06;;;3.96;91.97
43503;BME280;29098;48.184;16.298;2023-02-14T06:19:19;101245.53;;;3.96;92.37
43503;BME280;29098;48.184;16.298;2023-02-14T06:21:44;101231.25;;;3.88;92.51
43503;BME280;29098;48.184;16.298;2023-02-14T06:24:09;101235.94;;;3.97;91.78
43503;BME280;29098;48.184;16.298;2023-02-14T06:26:35;101234.09;;;3.99;91.96
43503;BME280;29098;48.184;16.298;2023-02-14T06:29:00;101241.06;;;3.98;91.33
43503;BME280;29098;48.184;16.298;2023-02-14T06:31:26;101237.81;;;4.09;90.72
43503;BME280;29098;48.184;16.298;2023-02-14T06:33:51;101241.06;;;3.98;91.39
43503;BME280;29098;48.184;16.298;2023-02-14T06:36:17;101239.09;;;3.88;92.08
43503;BME280;29098;48.184;16.298;2023-02-14T06:38:43;101247.31;;;3.81;92.59
43503;BME280;29098;48.184;16.298;2023-02-14T06:41:09;101229.78;;;3.83;92.32
43503;BME280;29098;48.184;16.298;2023-02-14T06:43:35;101239.84;;;4.04;92.58
43503;BME280;29098;48.184;16.298;2023-02-14T06:46:00;101239.97;;;4.03;91.86
43503;BME280;29098;48.184;16.298;2023-02-14T06:48:26;101244.31;;;4.02;91.59
43503;BME280;29098;48.184;16.298;2023-02-14T06:50:51;101250.84;;;3.95;91.47
43503;BME280;29098;48.184;16.298;2023-02-14T06:53:17;101252.72;;;4.07;92.09
43503;BME280;29098;48.184;16.298;2023-02-14T06:55:43;101245.28;;;4.16;91.43
43503;BME280;29098;48.184;16.298;2023-02-14T06:58:09;101254.13;;;4.13;91.02
43503;BME280;29098;48.184;16.298;2023-02-14T07:00:34;101263.94;;;4.24;90.63
43503;BME280;29098;48.184;16.298;2023-02-14T07:02:59;101256.09;;;4.24;90.39
43503;BME280;29098;48.184;16.298;2023-02-14T07:05:25;101260.38;;;4.10;90.92
43503;BME280;29098;48.184;16.298;2023-02-14T07:07:50;101258.41;;;4.14;90.33
43503;BME280;29098;48.184;16.298;2023-02-14T07:10:16;101260.94;;;4.16;90.17
43503;BME280;29098;48.184;16.298;2023-02-14T07:12:41;101254.50;;;4.21;90.16
43503;BME280;29098;48.184;16.298;2023-02-14T07:15:07;101265.06;;;4.20;90.64
43503;BME280;29098;48.184;16.298;2023-02-14T07:17:33;101259.28;;;4.29;89.99
43503;BME280;29098;48.184;16.298;2023-02-14T07:19:58;101259.28;;;4.44;89.23
43503;BME280;29098;48.184;16.298;2023-02-14T07:22:23;101263.19;;;4.51;89.34
43503;BME280;29098;48.184;16.298;2023-02-14T07:24:49;101265.59;;;4.39;89.64
43503;BME280;29098;48.184;16.298;2023-02-14T07:27:14;101265.78;;;4.22;89.73
43503;BME280;29098;48.184;16.298;2023-02-14T07:29:40;101261.31;;;4.38;89.17
43503;BME280;29098;48.184;16.298;2023-02-14T07:32:05;101266.72;;;4.50;88.78
43503;BME280;29098;48.184;16.298;2023-02-14T07:34:30;101269.72;;;4.44;88.45
43503;BME280;29098;48.184;16.298;2023-02-14T07:36:56;101269.31;;;4.50;88.92
43503;BME280;29098;48.184;16.298;2023-02-14T07:39:22;101278.00;;;4.65;87.59
43503;BME280;29098;48.184;16.298;2023-02-14T07:41:47;101280.13;;;4.58;87.31
43503;BME280;29098;48.184;16.298;2023-02-14T07:44:13;101272.50;;;4.55;87.42
43503;BME280;29098;48.184;16.298;2023-02-14T07:46:38;101283.06;;;4.39;88.22
43503;BME280;29098;48.184;16.298;2023-02-14T07:49:03;101272.28;;;4.58;87.36
43503;BME280;29098;48.184;16.298;2023-02-14T07:51:29;101277.78;;;4.68;87.16
43503;BME280;29098;48.184;16.298;2023-02-14T07:53:54;101283.13;;;4.66;87.11
43503;BME280;29098;48.184;16.298;2023-02-14T07:56:20;101280.97;;;4.73;86.61
43503;BME280;29098;48.184;16.298;2023-02-14T07:58:45;101292.44;;;4.71;86.80
43503;BME280;29098;48.184;16.298;2023-02-14T08:01:11;101287.97;;;4.73;87.17
43503;BME280;29098;48.184;16.298;2023-02-14T08:03:36;101291.69;;;4.83;86.46
43503;BME280;29098;48.184;16.298;2023-02-14T08:06:02;101288.88;;;4.86;86.68
43503;BME280;29098;48.184;16.298;2023-02-14T08:08:28;101285.88;;;4.92;86.30
43503;BME280;29098;48.184;16.298;2023-02-14T08:10:54;101294.75;;;4.90;86.70
43503;BME280;29098;48.184;16.298;2023-02-14T08:13:19;101301.78;;;4.89;86.54
43503;BME280;29098;48.184;16.298;2023-02-14T08:15:45;101293.81;;;4.91;86.62
43503;BME280;29098;48.184;16.298;2023-02-14T08:18:29;101296.91;;;4.98;86.75
43503;BME280;29098;48.184;16.298;2023-02-14T08:20:54;101291.50;;;4.86;87.33
43503;BME280;29098;48.184;16.298;2023-02-14T08:23:20;101302.59;;;4.90;88.17
43503;BME280;29098;48.184;16.298;2023-02-14T08:25:49;101297.00;;;4.96;88.44
43503;BME280;29098;48.184;16.298;2023-02-14T08:28:15;101291.09;;;5.07;87.47
43503;BME280;29098;48.184;16.298;2023-02-14T08:30:41;101293.06;;;5.03;87.41
43503;BME280;29098;48.184;16.298;2023-02-14T08:33:07;101296.22;;;5.09;87.83
43503;BME280;29098;48.184;16.298;2023-02-14T08:35:32;101304.41;;;5.17;87.23
43503;BME280;29098;48.184;16.298;2023-02-14T08:37:58;101303.94;;;5.10;87.59
43503;BME280;29098;48.184;16.298;2023-02-14T08:40:24;101305.44;;;5.14;87.65
43503;BME280;29098;48.184;16.298;2023-02-14T08:42:49;101305.06;;;5.20;87.19
43503;BME280;29098;48.184;16.298;2023-02-14T08:45:15;101307.13;;;5.15;86.79
43503;BME280;29098;48.184;16.298;2023-02-14T08:47:40;101311.97;;;5.21;86.87
43503;BME280;29098;48.184;16.298;2023-02-14T08:50:10;101313.47;;;5.11;87.27
43503;BME280;29098;48.184;16.298;2023-02-14T08:52:35;101317.56;;;5.15;87.12
43503;BME280;29098;48.184;16.298;2023-02-14T08:55:01;101316.03;;;5.26;86.52
43503;BME280;29098;48.184;16.298;2023-02-14T08:57:27;101318.88;;;5.23;86.85
43503;BME280;29098;48.184;16.298;2023-02-14T08:59:52;101318.06;;;5.35;86.28
43503;BME280;29098;48.184;16.298;2023-02-14T09:02:18;101313.25;;;5.29;86.02
43503;BME280;29098;48.184;16.298;2023-02-14T09:04:43;101319.97;;;5.18;87.05
43503;BME280;29098;48.184;16.298;2023-02-14T09:07:10;101320.16;;;5.30;85.90
43503;BME280;29098;48.184;16.298;2023-02-14T09:09:36;101318.28;;;5.32;86.09
43503;BME280;29098;48.184;16.298;2023-02-14T09:12:05;101323.88;;;5.26;86.24
43503;BME280;29098;48.184;16.298;2023-02-14T09:14:37;101325.69;;;5.25;85.64
43503;BME280;29098;48.184;16.298;2023-02-14T09:17:03;101340.69;;;5.36;85.69
43503;BME280;29098;48.184;16.298;2023-02-14T09:19:33;101335.47;;;5.36;85.24
43503;BME280;29098;48.184;16.298;2023-02-14T09:21:58;101341.25;;;5.27;85.55
43503;BME280;29098;48.184;16.298;2023-02-14T09:24:24;101335.00;;;5.29;85.09
43503;BME280;29098;48.184;16.298;2023-02-14T09:26:51;101339.88;;;5.21;85.26
43503;BME280;29098;48.184;16.298;2023-02-14T09:29:17;101344.81;;;5.26;85.05
43503;BME280;29098;48.184;16.298;2023-02-14T09:31:42;101337.72;;;5.28;85.19
43503;BME280;29098;48.184;16.298;2023-02-14T09:34:08;101349.66;;;5.32;84.06
43503;BME280;29098;48.184;16.298;2023-02-14T09:36:52;101344.22;;;5.35;84.03
43503;BME280;29098;48.184;16.298;2023-02-14T09:39:36;101345.38;;;5.31;84.16
43503;BME280;29098;48.184;16.298;2023-02-14T09:44:49;101336.28;;;5.37;83.15
43503;BME280;29098;48.184;16.298;2023-02-14T09:47:21;101342.38;;;5.37;83.14
43503;BME280;29098;48.184;16.298;2023-02-14T09:49:50;101338.81;;;5.38;82.90
43503;BME280;29098;48.184;16.298;2023-02-14T09:52:17;101337.66;;;5.42;82.52
43503;BME280;29098;48.184;16.298;2023-02-14T09:54:45;101333.38;;;5.41;82.28
43503;BME280;29098;48.184;16.298;2023-02-14T09:57:19;101338.47;;;5.30;82.50
43503;BME280;29098;48.184;16.298;2023-02-14T10:02:17;101330.63;;;5.30;82.63
43503;BME280;29098;48.184;16.298;2023-02-14T10:04:53;101334.59;;;5.35;82.46
43503;BME280;29098;48.184;16.298;2023-02-14T10:13:21;101331.66;;;5.55;81.31
43503;BME280;29098;48.184;16.298;2023-02-14T10:15:58;101331.44;;;5.58;80.93
43503;BME280;29098;48.184;16.298;2023-02-14T10:18:38;101337.75;;;5.68;81.15
43503;BME280;29098;48.184;16.298;2023-02-14T10:21:04;101335.78;;;5.72;79.57
43503;BME280;29098;48.184;16.298;2023-02-14T10:26:03;101328.06;;;5.83;79.31
43503;BME280;29098;48.184;16.298;2023-02-14T10:28:30;101322.00;;;5.83;79.51
43503;BME280;29098;48.184;16.298;2023-02-14T10:31:03;101329.59;;;5.73;79.23
43503;BME280;29098;48.184;16.298;2023-02-14T10:33:30;101332.66;;;5.80;78.30
43503;BME280;29098;48.184;16.298;2023-02-14T10:36:07;101326.13;;;5.72;78.93
43503;BME280;29098;48.184;16.298;2023-02-14T10:43:40;101326.22;;;5.98;78.18
43503;BME280;29098;48.184;16.298;2023-02-14T10:46:22;101313.84;;;6.00;78.04
43503;BME280;29098;48.184;16.298;2023-02-14T10:53:53;101317.97;;;6.05;77.12
43503;BME280;29098;48.184;16.298;2023-02-14T10:56:30;101306.13;;;6.12;76.85
43503;BME280;29098;48.184;16.298;2023-02-14T10:58:56;101298.25;;;6.12;77.12
43503;BME280;29098;48.184;16.298;2023-02-14T11:01:23;101297.66;;;6.21;76.86
43503;BME280;29098;48.184;16.298;2023-02-14T11:03:55;101301.09;;;6.35;76.25
43503;BME280;29098;48.184;16.298;2023-02-14T11:06:27;101303.22;;;6.29;75.83
43503;BME280;29098;48.184;16.298;2023-02-14T11:08:52;101302.16;;;6.19;75.78
43503;BME280;29098;48.184;16.298;2023-02-14T11:11:20;101294.41;;;6.30;76.31
43503;BME280;29098;48.184;16.298;2023-02-14T11:13:48;101291.56;;;6.34;76.10
43503;BME280;29098;48.184;16.298;2023-02-14T11:16:18;101288.22;;;6.32;75.55
43503;BME280;29098;48.184;16.298;2023-02-14T11:18:55;101291.38;;;6.37;75.03
43503;BME280;29098;48.184;16.298;2023-02-14T11:21:36;101285.28;;;6.36;75.14
43503;BME280;29098;48.184;16.298;2023-02-14T11:24:01;101297.97;;;6.29;75.82
43503;BME280;29098;48.184;16.298;2023-02-14T11:26:40;101281.63;;;6.39;74.71
43503;BME280;29098;48.184;16.298;2023-02-14T11:29:09;101282.34;;;6.41;74.87
43503;BME280;29098;48.184;16.298;2023-02-14T11:31:37;101278.69;;;6.43;74.84
43503;BME280;29098;48.184;16.298;2023-02-14T11:34:50;101275.72;;;6.48;75.57
43503;BME280;29098;48.184;16.298;2023-02-14T11:36:49;101284.31;;;6.50;74.76
43503;BME280;29098;48.184;16.298;2023-02-14T11:41:46;101279.81;;;6.52;73.80
43503;BME280;29098;48.184;16.298;2023-02-14T11:44:22;101279.06;;;6.63;73.74
43503;BME280;29098;48.184;16.298;2023-02-14T11:46:51;101277.28;;;6.64;73.86
43503;BME280;29098;48.184;16.298;2023-02-14T11:49:30;101278.41;;;6.72;73.25
43503;BME280;29098;48.184;16.298;2023-02-14T11:51:57;101268.13;;;6.82;73.51
43503;BME280;29098;48.184;16.298;2023-02-14T11:54:33;101272.91;;;6.89;72.83
43503;BME280;29098;48.184;16.298;2023-02-14T11:57:04;101262.69;;;6.72;73.73
43503;BME280;29098;48.184;16.298;2023-02-14T11:59:34;101267.41;;;6.67;74.02
43503;BME280;29098;48.184;16.298;2023-02-14T12:02:01;101265.41;;;6.71;73.54
43503;BME280;29098;48.184;16.298;2023-02-14T12:04:34;101264.78;;;6.67;73.81
43503;BME280;29098;48.184;16.298;2023-02-14T12:07:16;101266.06;;;6.62;73.47
43503;BME280;29098;48.184;16.298;2023-02-14T12:09:42;101255.41;;;6.52;73.58
43503;BME280;29098;48.184;16.298;2023-02-14T12:12:21;101258.44;;;6.58;73.55
43503;BME280;29098;48.184;16.298;2023-02-14T12:14:47;101249.75;;;6.45;72.94
43503;BME280;29098;48.184;16.298;2023-02-14T12:17:17;101252.06;;;6.50;72.46
43503;BME280;29098;48.184;16.298;2023-02-14T12:19:50;101249.34;;;6.38;73.26
43503;BME280;29098;48.184;16.298;2023-02-14T12:22:18;101245.53;;;6.55;73.15
43503;BME280;29098;48.184;16.298;2023-02-14T12:29:48;101239.63;;;6.65;72.38
43503;BME280;29098;48.184;16.298;2023-02-14T12:32:24;101237.16;;;6.63;71.53
43503;BME280;29098;48.184;16.298;2023-02-14T12:34:50;101230.53;;;6.57;72.06
43503;BME280;29098;48.184;16.298;2023-02-14T12:40:19;101215.56;;;6.60;71.34
43503;BME280;29098;48.184;16.298;2023-02-14T12:42:59;101223.44;;;6.47;72.16
43503;BME280;29098;48.184;16.298;2023-02-14T12:50:52;101218.66;;;6.40;72.83
43503;BME280;29098;48.184;16.298;2023-02-14T13:06:33;101225.00;;;6.49;71.57
43503;BME280;29098;48.184;16.298;2023-02-14T13:12:10;101215.00;;;6.67;70.68
43503;BME280;29098;48.184;16.298;2023-02-14T13:22:18;101212.28;;;6.69;71.52
43503;BME280;29098;48.184;16.298;2023-02-14T13:24:46;101219.25;;;6.81;70.98
43503;BME280;29098;48.184;16.298;2023-02-14T13:27:17;101221.84;;;6.94;70.24
43503;BME280;29098;48.184;16.298;2023-02-14T13:29:56;101220.47;;;6.89;70.60
43503;BME280;29098;48.184;16.298;2023-02-14T13:32:23;101219.41;;;6.91;70.78
43503;BME280;29098;48.184;16.298;2023-02-14T13:34:50;101221.44;;;6.88;69.82
43503;BME280;29098;48.184;16.298;2023-02-14T13:37:17;101216.13;;;6.76;69.96
43503;BME280;29098;48.184;16.298;2023-02-14T13:39:47;101207.56;;;6.74;70.27
43503;BME280;29098;48.184;16.298;2023-02-14T13:42:48;101211.88;;;6.87;70.06
43503;BME280;29098;48.184;16.298;2023-02-14T13:44:59;101202.13;;;6.89;70.86
43503;BME280;29098;48.184;16.298;2023-02-14T13:47:25;101203.31;;;6.84;70.20
43503;BME280;29098;48.184;16.298;2023-02-14T13:49:58;101203.25;;;6.97;69.83
43503;BME280;29098;48.184;16.298;2023-02-14T13:52:39;101207.53;;;6.98;69.33
43503;BME280;29098;48.184;16.298;2023-02-14T13:55:05;101207.59;;;6.85;69.45
43503;BME280;29098;48.184;16.298;2023-02-14T14:02:52;101199.34;;;6.79;68.70
43503;BME280;29098;48.184;16.298;2023-02-14T14:10:51;101203.13;;;6.75;68.79
43503;BME280;29098;48.184;16.298;2023-02-14T14:19:03;101200.56;;;6.62;69.25
43503;BME280;29098;48.184;16.298;2023-02-14T14:21:38;101190.84;;;6.51;69.97
43503;BME280;29098;48.184;16.298;2023-02-14T14:26:50;101193.31;;;6.28;70.41
43503;BME280;29098;48.184;16.298;2023-02-14T14:29:24;101187.97;;;6.29;71.10
43503;BME280;29098;48.184;16.298;2023-02-14T14:31:50;101194.22;;;6.40;71.26
43503;BME280;29098;48.184;16.298;2023-02-14T14:34:20;101184.97;;;6.47;70.64
43503;BME280;29098;48.184;16.298;2023-02-14T14:36:45;101181.34;;;6.37;70.57
43503;BME280;29098;48.184;16.298;2023-02-14T14:39:11;101179.13;;;6.43;70.34
43503;BME280;29098;48.184;16.298;2023-02-14T14:41:36;101174.88;;;6.54;70.30
43503;BME280;29098;48.184;16.298;2023-02-14T14:44:03;101173.25;;;6.40;70.19
43503;BME280;29098;48.184;16.298;2023-02-14T14:46:29;101171.91;;;6.34;70.44
43503;BME280;29098;48.184;16.298;2023-02-14T14:48:55;101167.63;;;6.33;70.57
43503;BME280;29098;48.184;16.298;2023-02-14T14:51:22;101169.75;;;6.15;71.26
43503;BME280;29098;48.184;16.298;2023-02-14T14:53:53;101163.34;;;6.19;71.09
43503;BME280;29098;48.184;16.298;2023-02-14T14:56:23;101163.44;;;6.30;70.94